createdAt,value
2019-02-02T00:00:57.192Z,20.60
2019-02-02T00:03:26.963Z,21.48
2019-02-02T00:05:56.243Z,21.20
2019-02-02T00:08:25.595Z,18.90
2019-02-02T00:10:54.922Z,19.25
2019-02-02T00:13:24.214Z,20.72
2019-02-02T00:15:53.519Z,19.80
2019-02-02T00:18:22.819Z,20.02
2019-02-02T00:20:52.106Z,19.25
2019-02-02T00:23:21.463Z,18.00
2019-02-02T00:25:50.776Z,18.82
2019-02-02T00:28:20.059Z,18.95
2019-02-02T00:30:49.362Z,19.62
2019-02-02T00:33:18.652Z,21.45
2019-02-02T00:35:47.949Z,19.25
2019-02-02T00:38:17.250Z,23.83
2019-02-02T00:40:46.580Z,20.43
2019-02-02T00:43:15.867Z,21.87
2019-02-02T00:45:45.160Z,21.93
2019-02-02T00:48:14.459Z,20.57
2019-02-02T00:50:43.762Z,21.12
2019-02-02T00:53:13.284Z,20.25
2019-02-02T00:55:42.588Z,20.62
2019-02-02T00:58:11.890Z,20.10
2019-02-02T01:00:41.190Z,21.50
2019-02-02T01:03:10.474Z,22.85
2019-02-02T01:05:39.750Z,22.52
2019-02-02T01:08:09.047Z,24.43
2019-02-02T01:10:40.190Z,24.30
2019-02-02T01:13:09.738Z,23.42
2019-02-02T01:15:39.097Z,22.67
2019-02-02T01:18:08.460Z,23.32
2019-02-02T01:20:38.051Z,23.20
2019-02-02T01:23:07.661Z,22.20
2019-02-02T01:25:37.029Z,23.32
2019-02-02T01:28:06.317Z,23.67
2019-02-02T01:30:35.614Z,24.75
2019-02-02T01:33:05.250Z,22.65
2019-02-02T01:35:34.541Z,24.20
2019-02-02T01:38:04.014Z,23.50
2019-02-02T01:40:33.303Z,25.20
2019-02-02T01:43:02.602Z,24.40
2019-02-02T01:45:31.891Z,24.25
2019-02-02T01:48:01.491Z,25.43
2019-02-02T01:50:30.786Z,24.67
2019-02-02T01:53:00.391Z,25.23
2019-02-02T01:55:29.718Z,25.10
2019-02-02T01:57:58.987Z,25.43
2019-02-02T02:00:33.116Z,25.02
2019-02-02T02:03:02.466Z,26.10
2019-02-02T02:05:31.844Z,24.10
2019-02-02T02:08:01.146Z,27.27
2019-02-02T02:10:30.442Z,26.82
2019-02-02T02:12:59.742Z,25.90
2019-02-02T02:15:29.049Z,27.05
2019-02-02T02:17:58.343Z,27.82
2019-02-02T02:20:27.632Z,28.00
2019-02-02T02:22:56.926Z,27.70
2019-02-02T02:25:26.234Z,26.30
2019-02-02T02:27:55.518Z,26.87
2019-02-02T02:30:24.899Z,27.22
2019-02-02T02:32:54.331Z,26.75
2019-02-02T02:35:23.626Z,26.55
2019-02-02T02:37:52.920Z,27.25
2019-02-02T02:40:24.625Z,26.70
2019-02-02T02:42:53.979Z,25.65
2019-02-02T02:45:23.599Z,27.50
2019-02-02T02:47:52.883Z,25.92
2019-02-02T02:50:22.727Z,26.95
2019-02-02T02:52:52.079Z,27.35
2019-02-02T02:55:21.447Z,26.20
2019-02-02T02:57:50.730Z,29.45
2019-02-02T03:00:22.652Z,29.25
2019-02-02T03:02:52.280Z,28.85
2019-02-02T03:05:21.758Z,27.17
2019-02-02T03:07:52.778Z,28.65
2019-02-02T03:10:24.587Z,28.38
2019-02-02T03:12:54.415Z,25.88
2019-02-02T03:15:23.715Z,26.95
2019-02-02T03:17:53.144Z,26.70
2019-02-02T03:20:22.438Z,26.17
2019-02-02T03:22:52.000Z,27.32
2019-02-02T03:25:24.275Z,27.07
2019-02-02T03:27:53.631Z,25.82
2019-02-02T03:30:23.019Z,25.97
2019-02-02T03:32:52.596Z,27.22
2019-02-02T03:35:23.908Z,28.45
2019-02-02T03:37:53.499Z,28.15
2019-02-02T03:40:23.551Z,25.25
2019-02-02T03:42:53.080Z,26.10
2019-02-02T03:45:24.457Z,25.30
2019-02-02T03:47:54.915Z,24.92
2019-02-02T03:50:24.191Z,26.62
2019-02-02T03:52:53.780Z,28.73
2019-02-02T03:55:23.376Z,27.45
2019-02-02T03:57:52.978Z,28.67
2019-02-02T04:00:23.007Z,25.48
2019-02-02T04:02:52.371Z,26.45
2019-02-02T04:05:24.311Z,25.27
2019-02-02T04:07:53.838Z,26.85
2019-02-02T04:10:23.143Z,28.27
2019-02-02T04:12:52.438Z,26.05
2019-02-02T04:15:22.075Z,27.25
2019-02-02T04:17:51.359Z,26.48
2019-02-02T04:20:22.299Z,25.60
2019-02-02T04:22:51.830Z,27.00
2019-02-02T04:25:22.460Z,24.60
2019-02-02T04:27:51.883Z,26.37
2019-02-02T04:30:25.878Z,26.00
2019-02-02T04:32:55.239Z,26.17
2019-02-02T04:35:24.621Z,25.30
2019-02-02T04:37:53.898Z,25.52
2019-02-02T04:40:23.271Z,24.72
2019-02-02T04:42:52.886Z,26.90
2019-02-02T04:45:22.203Z,24.77
2019-02-02T04:47:51.488Z,23.90
2019-02-02T04:50:21.359Z,25.70
2019-02-02T04:52:50.641Z,24.37
2019-02-02T04:55:20.465Z,24.98
2019-02-02T04:57:49.761Z,24.02
2019-02-02T05:00:26.866Z,24.05
2019-02-02T05:02:56.222Z,25.10
2019-02-02T05:05:25.525Z,27.05
2019-02-02T05:07:54.814Z,27.55
2019-02-02T05:10:24.862Z,28.52
2019-02-02T05:12:54.147Z,25.17
2019-02-02T05:15:23.727Z,27.48
2019-02-02T05:17:53.031Z,29.23
2019-02-02T05:20:22.339Z,26.40
2019-02-02T05:22:51.622Z,26.95
2019-02-02T05:25:20.911Z,27.35
2019-02-02T05:27:50.219Z,24.55
2019-02-02T05:30:30.528Z,27.13
2019-02-02T05:32:59.815Z,25.57
2019-02-02T05:35:29.395Z,27.07
2019-02-02T05:37:58.704Z,25.75
2019-02-02T05:40:27.999Z,26.87
2019-02-02T05:42:57.302Z,27.27
2019-02-02T05:45:26.904Z,27.73
2019-02-02T05:47:56.207Z,28.73
2019-02-02T05:50:25.496Z,28.40
2019-02-02T05:52:54.790Z,28.73
2019-02-02T05:55:24.238Z,30.50
2019-02-02T05:57:53.821Z,28.90
2019-02-02T06:00:36.433Z,30.45
2019-02-02T06:03:05.796Z,30.20
2019-02-02T06:05:35.075Z,33.30
2019-02-02T06:08:04.714Z,33.00
2019-02-02T06:10:34.016Z,33.38
2019-02-02T06:13:03.370Z,31.87
2019-02-02T06:15:33.060Z,30.12
2019-02-02T06:18:02.335Z,31.10
2019-02-02T06:20:31.964Z,33.42
2019-02-02T06:23:01.571Z,31.52
2019-02-02T06:25:30.875Z,31.33
2019-02-02T06:28:00.164Z,31.02
2019-02-02T06:30:29.781Z,30.90
2019-02-02T06:32:59.084Z,31.15
2019-02-02T06:35:28.373Z,31.52
2019-02-02T06:37:57.664Z,30.72
2019-02-02T06:40:26.963Z,30.57
2019-02-02T06:42:56.249Z,29.37
2019-02-02T06:45:31.127Z,31.80
2019-02-02T06:48:00.480Z,32.75
2019-02-02T06:50:29.782Z,29.90
2019-02-02T06:52:59.902Z,32.75
2019-02-02T06:55:29.215Z,31.70
2019-02-02T06:57:58.750Z,32.88
2019-02-02T07:00:31.930Z,29.90
2019-02-02T07:03:01.218Z,32.85
2019-02-02T07:05:33.574Z,32.75
2019-02-02T07:08:01.482Z,31.95
2019-02-02T07:10:30.854Z,31.17
2019-02-02T07:13:00.139Z,29.87
2019-02-02T07:15:31.123Z,31.15
2019-02-02T07:18:00.402Z,30.97
2019-02-02T07:20:29.703Z,29.90
2019-02-02T07:22:59.336Z,32.35
2019-02-02T07:25:28.671Z,31.50
2019-02-02T07:27:58.235Z,28.45
2019-02-02T07:30:29.149Z,29.50
2019-02-02T07:32:58.538Z,30.17
2019-02-02T07:35:27.818Z,29.90
2019-02-02T07:37:57.131Z,29.75
2019-02-02T07:40:26.434Z,29.07
2019-02-02T07:42:55.726Z,29.60
2019-02-02T07:45:30.254Z,30.32
2019-02-02T07:47:59.667Z,30.02
2019-02-02T07:50:28.995Z,30.43
2019-02-02T07:52:58.271Z,31.35
2019-02-02T07:55:27.558Z,30.12
2019-02-02T07:57:56.939Z,31.10
2019-02-02T08:00:40.910Z,30.75
2019-02-02T08:03:07.340Z,31.95
2019-02-02T08:05:36.658Z,29.95
2019-02-02T08:08:06.109Z,30.85
2019-02-02T08:10:35.398Z,31.37
2019-02-02T08:13:05.043Z,30.97
2019-02-02T08:15:34.922Z,31.12
2019-02-02T08:18:05.289Z,31.60
2019-02-02T08:20:34.557Z,33.75
2019-02-02T08:23:04.701Z,33.80
2019-02-02T08:25:33.994Z,31.90
2019-02-02T08:28:03.454Z,30.65
2019-02-02T08:30:35.575Z,33.10
2019-02-02T08:33:05.535Z,34.85
2019-02-02T08:35:34.843Z,34.03
2019-02-02T08:38:04.398Z,30.32
2019-02-02T08:40:33.707Z,31.80
2019-02-02T08:43:02.995Z,30.25
2019-02-02T08:45:33.855Z,33.40
2019-02-02T08:48:03.157Z,33.18
2019-02-02T08:50:34.579Z,32.75
2019-02-02T08:53:04.020Z,32.45
2019-02-02T08:55:33.419Z,35.38
2019-02-02T08:58:02.689Z,33.02
2019-02-02T09:00:31.975Z,35.92
2019-02-02T09:03:01.276Z,36.38
2019-02-02T09:05:30.873Z,36.83
2019-02-02T09:08:00.475Z,35.60
2019-02-02T09:10:29.846Z,36.13
2019-02-02T09:12:59.135Z,35.58
2019-02-02T09:15:28.613Z,35.65
2019-02-02T09:17:57.894Z,35.23
2019-02-02T09:20:27.490Z,40.12
2019-02-02T09:23:05.809Z,39.73
2019-02-02T09:25:28.282Z,44.45
2019-02-02T09:27:57.663Z,37.93
2019-02-02T09:30:32.107Z,36.50
2019-02-02T09:33:01.775Z,37.20
2019-02-02T09:35:31.383Z,36.60
2019-02-02T09:38:00.684Z,37.08
2019-02-02T09:40:29.992Z,35.78
2019-02-02T09:42:59.354Z,37.40
2019-02-02T09:45:28.702Z,37.23
2019-02-02T09:47:58.007Z,39.18
2019-02-02T09:50:27.831Z,35.00
2019-02-02T09:52:57.131Z,36.75
2019-02-02T09:55:26.919Z,37.93
2019-02-02T09:57:59.324Z,38.48
2019-02-02T10:00:30.635Z,36.65
2019-02-02T10:02:59.943Z,37.90
2019-02-02T10:05:30.372Z,37.25
2019-02-02T10:07:59.671Z,37.30
2019-02-02T10:10:31.767Z,38.08
2019-02-02T10:13:01.652Z,37.75
2019-02-02T10:15:31.010Z,38.40
2019-02-02T10:18:00.295Z,42.67
2019-02-02T10:20:31.227Z,41.30
2019-02-02T10:23:01.461Z,39.63
2019-02-02T10:25:31.717Z,36.53
2019-02-02T10:28:01.403Z,36.58
2019-02-02T10:30:32.735Z,36.90
2019-02-02T10:33:02.038Z,35.75
2019-02-02T10:35:31.395Z,36.10
2019-02-02T10:38:00.802Z,37.90
2019-02-02T10:40:30.327Z,35.28
2019-02-02T10:42:59.843Z,33.42
2019-02-02T10:45:29.132Z,33.02
2019-02-02T10:47:58.428Z,36.73
2019-02-02T10:50:27.787Z,36.23
2019-02-02T10:52:57.183Z,37.35
2019-02-02T10:55:26.467Z,36.83
2019-02-02T10:57:55.807Z,36.38
2019-02-02T11:00:33.095Z,37.58
2019-02-02T11:03:02.423Z,38.45
2019-02-02T11:05:31.731Z,37.35
2019-02-02T11:08:01.224Z,37.63
2019-02-02T11:10:34.994Z,37.55
2019-02-02T11:13:05.788Z,39.30
2019-02-02T11:15:35.264Z,38.35
2019-02-02T11:18:04.888Z,38.73
2019-02-02T11:20:35.943Z,38.23
2019-02-02T11:23:05.601Z,40.28
2019-02-02T11:25:35.135Z,37.65
2019-02-02T11:28:04.719Z,38.45
2019-02-02T11:30:34.153Z,39.03
2019-02-02T11:33:03.746Z,37.90
2019-02-02T11:35:33.051Z,43.08
2019-02-02T11:38:02.332Z,43.58
2019-02-02T11:40:33.472Z,41.90
2019-02-02T11:43:02.856Z,43.68
2019-02-02T11:45:32.114Z,38.78
2019-02-02T11:48:01.422Z,36.20
2019-02-02T11:50:30.712Z,37.88
2019-02-02T11:53:00.044Z,37.48
2019-02-02T11:55:29.636Z,38.70
2019-02-02T11:57:59.207Z,38.95
2019-02-02T12:00:34.192Z,39.67
2019-02-02T12:03:04.522Z,40.90
2019-02-02T12:05:34.082Z,43.17
2019-02-02T12:08:03.434Z,43.63
2019-02-02T12:10:34.282Z,41.92
2019-02-02T12:13:03.563Z,40.15
2019-02-02T12:15:33.122Z,42.25
2019-02-02T12:18:02.508Z,40.65
2019-02-02T12:20:33.364Z,39.35
2019-02-02T12:23:03.099Z,40.85
2019-02-02T12:25:32.473Z,39.90
2019-02-02T12:28:01.774Z,37.55
2019-02-02T12:30:33.030Z,39.25
2019-02-02T12:33:03.319Z,37.40
2019-02-02T12:35:34.802Z,39.38
2019-02-02T12:38:04.943Z,39.67
2019-02-02T12:40:34.230Z,42.20
2019-02-02T12:43:03.599Z,39.88
2019-02-02T12:45:42.854Z,40.92
2019-02-02T12:48:12.142Z,38.55
2019-02-02T12:50:41.507Z,40.08
2019-02-02T12:53:11.205Z,37.75
2019-02-02T12:55:52.239Z,40.40
2019-02-02T12:58:21.581Z,37.00
2019-02-02T13:00:50.894Z,39.08
2019-02-02T13:03:20.447Z,38.20
2019-02-02T13:05:49.746Z,38.05
2019-02-02T13:08:19.027Z,36.88
2019-02-02T13:10:48.318Z,38.65
2019-02-02T13:13:17.602Z,39.63
2019-02-02T13:15:46.907Z,39.53
2019-02-02T13:18:16.211Z,35.45
2019-02-02T13:20:45.539Z,37.78
2019-02-02T13:23:14.800Z,37.73
2019-02-02T13:25:44.151Z,36.45
2019-02-02T13:28:13.472Z,38.02
2019-02-02T13:30:42.776Z,39.48
2019-02-02T13:33:12.105Z,35.58
2019-02-02T13:35:41.583Z,32.70
2019-02-02T13:38:10.855Z,28.32
2019-02-02T13:40:40.152Z,29.65
2019-02-02T13:43:09.432Z,29.00
2019-02-02T13:45:38.739Z,29.63
2019-02-02T13:48:08.015Z,29.77
2019-02-02T13:50:37.330Z,29.82
2019-02-02T13:53:07.442Z,30.27
2019-02-02T13:55:39.656Z,28.75
2019-02-02T13:58:07.968Z,28.65
2019-02-02T14:00:37.262Z,31.95
2019-02-02T14:03:06.542Z,32.58
2019-02-02T14:05:35.842Z,32.55
2019-02-02T14:08:05.539Z,32.65
2019-02-02T14:10:35.607Z,32.65
2019-02-02T14:13:04.911Z,34.50
2019-02-02T14:15:34.194Z,34.67
2019-02-02T14:18:03.566Z,35.05
2019-02-02T14:20:33.182Z,37.38
2019-02-02T14:23:02.607Z,34.98
2019-02-02T14:25:31.972Z,36.45
2019-02-02T14:28:01.259Z,35.30
2019-02-02T14:30:30.555Z,36.42
2019-02-02T14:33:00.087Z,36.48
2019-02-02T14:35:29.617Z,36.03
2019-02-02T14:37:58.907Z,38.13
2019-02-02T14:40:28.218Z,36.98
2019-02-02T14:42:57.599Z,37.00
2019-02-02T14:45:27.882Z,38.10
2019-02-02T14:47:57.472Z,38.58
2019-02-02T14:50:26.763Z,36.20
2019-02-02T14:52:56.174Z,38.15
2019-02-02T14:55:27.630Z,38.50
2019-02-02T14:57:57.211Z,37.03
2019-02-02T15:00:30.767Z,36.13
2019-02-02T15:03:03.206Z,35.45
2019-02-02T15:05:42.602Z,38.50
2019-02-02T15:08:02.478Z,39.45
2019-02-02T15:10:31.778Z,38.40
2019-02-02T15:13:01.087Z,38.88
2019-02-02T15:15:30.375Z,38.60
2019-02-02T15:17:59.675Z,39.75
2019-02-02T15:20:31.787Z,36.90
2019-02-02T15:23:01.083Z,37.45
2019-02-02T15:25:30.659Z,37.05
2019-02-02T15:27:59.963Z,39.95
2019-02-02T15:30:31.763Z,39.60
2019-02-02T15:33:01.331Z,39.58
2019-02-02T15:35:31.041Z,38.58
2019-02-02T15:38:00.343Z,38.98
2019-02-02T15:40:31.597Z,39.90
2019-02-02T15:43:00.646Z,41.28
2019-02-02T15:45:31.671Z,39.83
2019-02-02T15:48:00.967Z,38.63
2019-02-02T15:50:30.273Z,39.25
2019-02-02T15:52:59.557Z,38.10
2019-02-02T15:55:28.898Z,40.78
2019-02-02T15:57:58.182Z,40.50
2019-02-02T16:00:32.908Z,36.85
2019-02-02T16:03:02.191Z,36.10
2019-02-02T16:05:31.677Z,36.42
2019-02-02T16:08:03.096Z,35.70
2019-02-02T16:10:33.038Z,34.35
2019-02-02T16:13:02.668Z,36.10
2019-02-02T16:15:34.384Z,38.10
2019-02-02T16:18:03.030Z,34.43
2019-02-02T16:20:35.243Z,36.80
2019-02-02T16:23:05.867Z,35.45
2019-02-02T16:25:35.167Z,35.85
2019-02-02T16:28:05.094Z,37.05
2019-02-02T16:30:34.470Z,35.75
2019-02-02T16:33:04.135Z,39.60
2019-02-02T16:35:33.555Z,47.80
2019-02-02T16:38:03.124Z,39.48
2019-02-02T16:40:32.419Z,35.20
2019-02-02T16:43:01.723Z,34.70
2019-02-02T16:45:32.552Z,34.10
2019-02-02T16:48:01.846Z,32.53
2019-02-02T16:50:31.131Z,33.95
2019-02-02T16:53:00.432Z,37.25
2019-02-02T16:55:29.964Z,38.48
2019-02-02T16:57:59.266Z,36.33
2019-02-02T17:00:33.278Z,36.05
2019-02-02T17:03:02.881Z,33.70
2019-02-02T17:05:32.161Z,32.73
2019-02-02T17:08:01.531Z,33.88
2019-02-02T17:10:33.047Z,32.48
2019-02-02T17:13:02.351Z,34.48
2019-02-02T17:15:31.743Z,36.68
2019-02-02T17:18:01.026Z,34.90
2019-02-02T17:20:33.210Z,34.53
2019-02-02T17:23:02.490Z,35.90
2019-02-02T17:25:31.803Z,34.27
2019-02-02T17:28:01.095Z,35.83
2019-02-02T17:30:30.453Z,36.93
2019-02-02T17:33:08.255Z,35.55
2019-02-02T17:35:37.562Z,36.83
2019-02-02T17:38:06.835Z,34.92
2019-02-02T17:40:36.420Z,35.25
2019-02-02T17:43:05.726Z,36.60
2019-02-02T17:45:35.324Z,34.90
2019-02-02T17:48:05.548Z,35.17
2019-02-02T17:50:34.841Z,37.23
2019-02-02T17:53:04.294Z,34.58
2019-02-02T17:55:33.603Z,34.80
2019-02-02T17:58:02.911Z,35.33
2019-02-02T18:00:38.914Z,34.65
2019-02-02T18:03:08.210Z,34.43
2019-02-02T18:05:37.519Z,35.13
2019-02-02T18:08:06.879Z,36.48
2019-02-02T18:10:36.178Z,35.33
2019-02-02T18:13:05.538Z,34.85
2019-02-02T18:15:34.846Z,34.23
2019-02-02T18:18:04.667Z,38.55
2019-02-02T18:20:34.051Z,35.70
2019-02-02T18:23:03.504Z,31.10
2019-02-02T18:25:32.803Z,30.08
2019-02-02T18:28:02.108Z,33.33
2019-02-02T18:30:31.462Z,36.30
2019-02-02T18:33:00.773Z,37.50
2019-02-02T18:35:30.126Z,34.20
2019-02-02T18:37:59.421Z,32.15
2019-02-02T18:40:28.715Z,34.30
2019-02-02T18:42:58.039Z,31.75
2019-02-02T18:45:28.468Z,32.33
2019-02-02T18:47:57.811Z,36.65
2019-02-02T18:50:27.158Z,36.42
2019-02-02T18:52:58.704Z,33.98
2019-02-02T18:55:40.047Z,30.45
2019-02-02T18:58:09.344Z,31.87
2019-02-02T19:00:38.927Z,31.95
2019-02-02T19:03:08.228Z,38.90
2019-02-02T19:05:37.510Z,35.45
2019-02-02T19:08:06.887Z,29.60
2019-02-02T19:10:41.503Z,22.60
2019-02-02T19:13:10.866Z,20.23
2019-02-02T19:15:40.175Z,20.95
2019-02-02T19:18:09.459Z,21.95
2019-02-02T19:20:38.759Z,22.55
2019-02-02T19:23:08.042Z,22.50
2019-02-02T19:25:37.358Z,23.98
2019-02-02T19:28:06.911Z,23.27
2019-02-02T19:30:36.558Z,25.57
2019-02-02T19:33:05.955Z,23.30
2019-02-02T19:35:35.244Z,23.20
2019-02-02T19:38:04.919Z,25.72
2019-02-02T19:40:34.207Z,29.30
2019-02-02T19:43:03.584Z,28.62
2019-02-02T19:45:32.895Z,26.90
2019-02-02T19:48:02.178Z,27.25
2019-02-02T19:50:31.491Z,26.30
2019-02-02T19:53:00.852Z,26.52
2019-02-02T19:55:30.265Z,29.20
2019-02-02T19:57:59.567Z,33.23
2019-02-02T20:00:34.123Z,27.60
2019-02-02T20:03:04.057Z,35.20
2019-02-02T20:05:33.341Z,45.55
2019-02-02T20:08:02.953Z,32.45
2019-02-02T20:10:32.236Z,20.88
2019-02-02T20:13:01.544Z,19.67
2019-02-02T20:15:30.834Z,18.40
2019-02-02T20:18:09.613Z,17.45
2019-02-02T20:20:31.402Z,19.07
2019-02-02T20:23:00.676Z,18.52
2019-02-02T20:25:29.971Z,18.85
2019-02-02T20:27:59.274Z,21.02
2019-02-02T20:30:30.797Z,21.50
2019-02-02T20:33:00.107Z,19.40
2019-02-02T20:35:40.839Z,22.00
2019-02-02T20:38:00.427Z,19.30
2019-02-02T20:40:29.795Z,17.55
2019-02-02T20:42:59.086Z,16.55
2019-02-02T20:45:33.726Z,18.23
2019-02-02T20:48:03.012Z,18.77
2019-02-02T20:50:32.303Z,16.82
2019-02-02T20:53:01.607Z,17.95
2019-02-02T20:55:33.794Z,20.10
2019-02-02T20:58:03.120Z,19.02
2019-02-02T21:00:32.472Z,20.02
2019-02-02T21:03:01.763Z,22.45
2019-02-02T21:05:31.981Z,19.07
2019-02-02T21:08:01.602Z,21.35
2019-02-02T21:10:30.907Z,20.97
2019-02-02T21:13:00.266Z,20.72
2019-02-02T21:15:29.587Z,20.90
2019-02-02T21:17:58.854Z,19.95
2019-02-02T21:20:29.930Z,20.23
2019-02-02T21:22:59.276Z,19.65
2019-02-02T21:25:28.574Z,20.15
2019-02-02T21:27:58.227Z,21.60
2019-02-02T21:30:34.786Z,20.48
2019-02-02T21:33:04.869Z,20.97
2019-02-02T21:35:34.240Z,20.55
2019-02-02T21:38:03.815Z,18.00
2019-02-02T21:40:34.592Z,21.50
2019-02-02T21:43:04.446Z,20.72
2019-02-02T21:45:33.746Z,18.57
2019-02-02T21:48:03.052Z,18.85
2019-02-02T21:50:32.651Z,18.48
2019-02-02T21:53:01.975Z,17.75
2019-02-02T21:55:31.335Z,16.70
2019-02-02T21:58:00.643Z,16.40
2019-02-02T22:00:35.898Z,13.80
2019-02-02T22:03:06.619Z,15.15
2019-02-02T22:05:35.922Z,15.98
2019-02-02T22:08:06.862Z,15.68
2019-02-02T22:10:36.223Z,13.93
2019-02-02T22:13:06.058Z,15.25
2019-02-02T22:15:35.684Z,17.15
2019-02-02T22:18:05.291Z,17.75
2019-02-02T22:20:34.605Z,18.92
2019-02-02T22:23:03.952Z,19.17
2019-02-02T22:25:34.219Z,17.70
2019-02-02T22:28:03.493Z,17.50
2019-02-02T22:30:35.054Z,17.23
2019-02-02T22:33:05.376Z,16.20
2019-02-02T22:35:34.828Z,14.87
2019-02-02T22:38:04.322Z,17.00
2019-02-02T22:40:33.614Z,16.75
2019-02-02T22:43:03.215Z,16.23
2019-02-02T22:45:32.515Z,17.35
2019-02-02T22:48:01.815Z,19.75
2019-02-02T22:50:31.393Z,17.75
2019-02-02T22:53:00.693Z,15.63
2019-02-02T22:55:29.975Z,14.87
2019-02-02T22:57:59.278Z,15.10
2019-02-02T23:00:48.188Z,16.35
2019-02-02T23:03:44.623Z,15.88
2019-02-02T23:06:38.541Z,14.50
2019-02-02T23:09:33.747Z,13.40
2019-02-02T23:12:12.720Z,15.75
2019-02-02T23:15:00.487Z,14.70
2019-02-02T23:17:29.780Z,14.75
2019-02-02T23:20:00.481Z,14.13
2019-02-02T23:22:30.144Z,15.10
2019-02-02T23:24:59.727Z,16.67
2019-02-02T23:27:29.329Z,14.70
2019-02-02T23:29:58.633Z,16.67
2019-02-02T23:32:27.938Z,15.83
2019-02-02T23:34:57.227Z,15.32
2019-02-02T23:37:26.779Z,16.85
2019-02-02T23:39:56.066Z,14.83
2019-02-02T23:42:25.645Z,16.42
2019-02-02T23:44:55.094Z,17.45
2019-02-02T23:47:24.383Z,16.35
2019-02-02T23:49:53.696Z,15.80
2019-02-02T23:52:22.982Z,16.40
2019-02-02T23:54:52.559Z,16.97
2019-02-02T23:57:21.846Z,15.63
2019-02-02T23:59:51.535Z,15.30
